world map with PRJ marked

PRJ - Heliport

This information may not be accurate or current and is not valid for navigation or flight planning. No warranty of fitness for any purpose is made or implied.

flag of Campaniaflag of Italy

Donate via PayPal

Additional information is available on the NEW Great Circle Mapper

Location
City:  Capri, Campania, Italy
Name:Anacapri Damecuta
ICAO / IATA:LIQC / PRJ

Details
Type:Heliport
Latitude:40°33'29"N (40.558056)
Longitude:14°12'04"E (14.201111)
Elevation:512 ft (156 m)

Time
Timezone:UTC+1 (DST+4)
Local Time:

Weather
METAR:LIQC  041355Z 05003KT 9999 OVC030 12/06 Q1014 RMK OVC QUK 3 QUL 1 NE VIS MAR 25 KM VIS MIN 9999

Related Locations
Nearby:
Farthest:CHT: 11849 mi / 19069 km
Waitangi [Tuuta], CIT, NZ

Find:

   beyond  
but within

Other Information
Maps:
Sources:

  


 


Great Circle Mapper   Great Circle Mapper
Great Circle Mapper FAQ   Great Circle Mapper FAQ
  Karl's Home Page
KLSē   KLSē Home
   GC on Facebook
Airlines of the World   Airlines of the World
Donate via PayPal


Copyright © 2004-2020, Karl L. Swartz. All rights reserved.
All trademarks mentioned herein belong to their respective owners.

Please see credits for attribution and copyright information.

Karl Swartz <karl@kls2.com>
  Powered by FreeBSD
Valid HTML 4.01!
Labeled with ICRA
hCard Microformat
Geo Microformat